sensor_id;sensor_type;location;lat;lon;timestamp;P1;durP1;ratioP1;P2;durP2;ratioP2
25341;SDS011;13298;48.792;9.154;2023-02-26T00:01:01;3.72;;;1.77;;
25341;SDS011;13298;48.792;9.154;2023-02-26T00:03:36;3.47;;;1.65;;
25341;SDS011;13298;48.792;9.154;2023-02-26T00:06:02;6.90;;;1.75;;
25341;SDS011;13298;48.792;9.154;2023-02-26T00:08:27;5.00;;;1.73;;
25341;SDS011;13298;48.792;9.154;2023-02-26T00:10:55;2.97;;;1.70;;
25341;SDS011;13298;48.792;9.154;2023-02-26T00:13:22;3.25;;;1.58;;
25341;SDS011;13298;48.792;9.154;2023-02-26T00:15:49;4.45;;;1.70;;
25341;SDS011;13298;48.792;9.154;2023-02-26T00:18:23;4.35;;;1.80;;
25341;SDS011;13298;48.792;9.154;2023-02-26T00:20:49;6.15;;;1.50;;
25341;SDS011;13298;48.792;9.154;2023-02-26T00:23:15;2.55;;;1.80;;
25341;SDS011;13298;48.792;9.154;2023-02-26T00:25:42;5.40;;;1.80;;
25341;SDS011;13298;48.792;9.154;2023-02-26T00:28:09;3.50;;;1.70;;
25341;SDS011;13298;48.792;9.154;2023-02-26T00:30:35;4.72;;;1.85;;
25341;SDS011;13298;48.792;9.154;2023-02-26T00:33:02;3.97;;;1.90;;
25341;SDS011;13298;48.792;9.154;2023-02-26T00:35:28;6.63;;;1.90;;
25341;SDS011;13298;48.792;9.154;2023-02-26T00:37:56;4.65;;;1.83;;
25341;SDS011;13298;48.792;9.154;2023-02-26T00:43:14;2.80;;;1.65;;
25341;SDS011;13298;48.792;9.154;2023-02-26T00:48:37;4.53;;;1.95;;
25341;SDS011;13298;48.792;9.154;2023-02-26T00:54:12;4.78;;;1.60;;
25341;SDS011;13298;48.792;9.154;2023-02-26T00:56:47;3.47;;;1.80;;
25341;SDS011;13298;48.792;9.154;2023-02-26T00:59:14;2.90;;;1.67;;
25341;SDS011;13298;48.792;9.154;2023-02-26T01:01:41;6.88;;;1.70;;
25341;SDS011;13298;48.792;9.154;2023-02-26T01:04:07;3.95;;;1.67;;
25341;SDS011;13298;48.792;9.154;2023-02-26T01:06:34;3.17;;;1.75;;
25341;SDS011;13298;48.792;9.154;2023-02-26T01:09:13;3.65;;;1.30;;
25341;SDS011;13298;48.792;9.154;2023-02-26T01:11:49;3.13;;;1.45;;
25341;SDS011;13298;48.792;9.154;2023-02-26T01:14:16;3.60;;;1.80;;
25341;SDS011;13298;48.792;9.154;2023-02-26T01:16:46;3.20;;;1.50;;
25341;SDS011;13298;48.792;9.154;2023-02-26T01:22:22;3.38;;;1.50;;
25341;SDS011;13298;48.792;9.154;2023-02-26T01:25:03;3.13;;;1.67;;
25341;SDS011;13298;48.792;9.154;2023-02-26T01:27:42;1.90;;;1.40;;
25341;SDS011;13298;48.792;9.154;2023-02-26T01:30:08;3.15;;;1.33;;
25341;SDS011;13298;48.792;9.154;2023-02-26T01:35:41;5.35;;;1.70;;
25341;SDS011;13298;48.792;9.154;2023-02-26T01:38:27;4.07;;;1.65;;
25341;SDS011;13298;48.792;9.154;2023-02-26T01:49:29;4.82;;;1.52;;
25341;SDS011;13298;48.792;9.154;2023-02-26T01:51:59;6.43;;;1.85;;
25341;SDS011;13298;48.792;9.154;2023-02-26T01:54:30;4.75;;;1.83;;
25341;SDS011;13298;48.792;9.154;2023-02-26T01:57:00;4.93;;;1.63;;
25341;SDS011;13298;48.792;9.154;2023-02-26T01:59:43;4.95;;;1.60;;
25341;SDS011;13298;48.792;9.154;2023-02-26T02:02:12;6.47;;;1.73;;
25341;SDS011;13298;48.792;9.154;2023-02-26T02:07:10;4.25;;;1.70;;
25341;SDS011;13298;48.792;9.154;2023-02-26T02:09:36;5.55;;;1.80;;
25341;SDS011;13298;48.792;9.154;2023-02-26T02:17:46;3.97;;;1.90;;
25341;SDS011;13298;48.792;9.154;2023-02-26T02:26:18;3.30;;;1.70;;
25341;SDS011;13298;48.792;9.154;2023-02-26T02:29:24;3.13;;;1.50;;
25341;SDS011;13298;48.792;9.154;2023-02-26T02:34:51;4.32;;;1.70;;
25341;SDS011;13298;48.792;9.154;2023-02-26T02:38:18;4.28;;;1.48;;
25341;SDS011;13298;48.792;9.154;2023-02-26T02:40:31;3.72;;;1.63;;
25341;SDS011;13298;48.792;9.154;2023-02-26T02:43:01;4.80;;;1.80;;
25341;SDS011;13298;48.792;9.154;2023-02-26T02:48:28;2.08;;;1.50;;
25341;SDS011;13298;48.792;9.154;2023-02-26T02:54:12;3.95;;;1.65;;
25341;SDS011;13298;48.792;9.154;2023-02-26T02:57:03;3.60;;;1.67;;
25341;SDS011;13298;48.792;9.154;2023-02-26T02:59:56;3.63;;;1.75;;
25341;SDS011;13298;48.792;9.154;2023-02-26T03:02:40;3.88;;;2.08;;
25341;SDS011;13298;48.792;9.154;2023-02-26T03:05:15;6.35;;;1.65;;
25341;SDS011;13298;48.792;9.154;2023-02-26T03:08:01;3.17;;;1.65;;
25341;SDS011;13298;48.792;9.154;2023-02-26T03:10:38;3.70;;;2.03;;
25341;SDS011;13298;48.792;9.154;2023-02-26T03:13:04;4.28;;;1.60;;
25341;SDS011;13298;48.792;9.154;2023-02-26T03:15:36;5.85;;;2.08;;
25341;SDS011;13298;48.792;9.154;2023-02-26T03:23:56;6.75;;;2.17;;
25341;SDS011;13298;48.792;9.154;2023-02-26T03:26:58;3.15;;;1.35;;
25341;SDS011;13298;48.792;9.154;2023-02-26T03:29:38;3.67;;;1.35;;
25341;SDS011;13298;48.792;9.154;2023-02-26T03:32:18;3.78;;;1.83;;
25341;SDS011;13298;48.792;9.154;2023-02-26T03:37:51;4.32;;;1.58;;
25341;SDS011;13298;48.792;9.154;2023-02-26T03:43:37;5.45;;;1.58;;
25341;SDS011;13298;48.792;9.154;2023-02-26T03:46:36;3.47;;;1.52;;
25341;SDS011;13298;48.792;9.154;2023-02-26T03:49:10;3.47;;;1.45;;
25341;SDS011;13298;48.792;9.154;2023-02-26T03:51:41;4.90;;;1.60;;
25341;SDS011;13298;48.792;9.154;2023-02-26T03:54:20;9.07;;;1.92;;
25341;SDS011;13298;48.792;9.154;2023-02-26T03:56:51;3.40;;;1.67;;
25341;SDS011;13298;48.792;9.154;2023-02-26T03:59:17;6.60;;;1.73;;
25341;SDS011;13298;48.792;9.154;2023-02-26T04:01:55;5.75;;;1.83;;
25341;SDS011;13298;48.792;9.154;2023-02-26T04:07:07;3.75;;;1.55;;
25341;SDS011;13298;48.792;9.154;2023-02-26T04:09:41;3.72;;;2.05;;
25341;SDS011;13298;48.792;9.154;2023-02-26T04:12:09;4.50;;;2.00;;
25341;SDS011;13298;48.792;9.154;2023-02-26T04:14:35;4.78;;;1.92;;
25341;SDS011;13298;48.792;9.154;2023-02-26T04:17:01;5.75;;;1.80;;
25341;SDS011;13298;48.792;9.154;2023-02-26T04:19:27;3.45;;;1.63;;
25341;SDS011;13298;48.792;9.154;2023-02-26T04:21:52;8.00;;;2.15;;
25341;SDS011;13298;48.792;9.154;2023-02-26T04:24:18;3.92;;;2.00;;
25341;SDS011;13298;48.792;9.154;2023-02-26T04:26:44;5.30;;;1.77;;
25341;SDS011;13298;48.792;9.154;2023-02-26T04:29:10;4.82;;;2.20;;
25341;SDS011;13298;48.792;9.154;2023-02-26T04:31:35;4.22;;;2.00;;
25341;SDS011;13298;48.792;9.154;2023-02-26T04:34:01;3.95;;;1.70;;
25341;SDS011;13298;48.792;9.154;2023-02-26T04:36:27;6.32;;;1.80;;
25341;SDS011;13298;48.792;9.154;2023-02-26T04:38:53;4.65;;;1.70;;
25341;SDS011;13298;48.792;9.154;2023-02-26T04:41:19;3.40;;;1.80;;
25341;SDS011;13298;48.792;9.154;2023-02-26T04:43:45;5.35;;;2.13;;
25341;SDS011;13298;48.792;9.154;2023-02-26T04:46:10;5.95;;;1.90;;
25341;SDS011;13298;48.792;9.154;2023-02-26T04:48:36;2.92;;;1.70;;
25341;SDS011;13298;48.792;9.154;2023-02-26T04:51:02;5.03;;;1.70;;
25341;SDS011;13298;48.792;9.154;2023-02-26T04:53:28;3.25;;;1.48;;
25341;SDS011;13298;48.792;9.154;2023-02-26T04:55:54;3.97;;;1.80;;
25341;SDS011;13298;48.792;9.154;2023-02-26T04:58:20;3.38;;;1.92;;
25341;SDS011;13298;48.792;9.154;2023-02-26T05:00:49;3.10;;;1.95;;
25341;SDS011;13298;48.792;9.154;2023-02-26T05:03:16;6.28;;;2.08;;
25341;SDS011;13298;48.792;9.154;2023-02-26T05:05:42;5.63;;;2.20;;
25341;SDS011;13298;48.792;9.154;2023-02-26T05:08:09;4.00;;;1.98;;
25341;SDS011;13298;48.792;9.154;2023-02-26T05:10:34;5.40;;;2.10;;
25341;SDS011;13298;48.792;9.154;2023-02-26T05:13:00;4.35;;;2.10;;
25341;SDS011;13298;48.792;9.154;2023-02-26T05:15:26;3.75;;;1.63;;
25341;SDS011;13298;48.792;9.154;2023-02-26T05:17:52;3.03;;;1.80;;
25341;SDS011;13298;48.792;9.154;2023-02-26T05:20:17;6.15;;;1.83;;
25341;SDS011;13298;48.792;9.154;2023-02-26T05:22:43;6.18;;;1.85;;
25341;SDS011;13298;48.792;9.154;2023-02-26T05:25:09;4.38;;;1.80;;
25341;SDS011;13298;48.792;9.154;2023-02-26T05:27:39;6.35;;;1.83;;
25341;SDS011;13298;48.792;9.154;2023-02-26T05:30:06;3.00;;;1.90;;
25341;SDS011;13298;48.792;9.154;2023-02-26T05:32:34;4.95;;;1.85;;
25341;SDS011;13298;48.792;9.154;2023-02-26T05:34:59;4.97;;;1.90;;
25341;SDS011;13298;48.792;9.154;2023-02-26T05:37:26;5.85;;;1.95;;
25341;SDS011;13298;48.792;9.154;2023-02-26T05:39:51;5.38;;;2.10;;
25341;SDS011;13298;48.792;9.154;2023-02-26T05:42:17;3.50;;;1.65;;
25341;SDS011;13298;48.792;9.154;2023-02-26T05:44:43;5.30;;;1.95;;
25341;SDS011;13298;48.792;9.154;2023-02-26T05:47:09;4.57;;;2.05;;
25341;SDS011;13298;48.792;9.154;2023-02-26T05:49:34;5.47;;;2.00;;
25341;SDS011;13298;48.792;9.154;2023-02-26T05:52:01;5.28;;;2.15;;
25341;SDS011;13298;48.792;9.154;2023-02-26T05:54:26;5.18;;;1.92;;
25341;SDS011;13298;48.792;9.154;2023-02-26T05:56:52;3.88;;;1.80;;
25341;SDS011;13298;48.792;9.154;2023-02-26T05:59:18;5.07;;;2.20;;
25341;SDS011;13298;48.792;9.154;2023-02-26T06:01:44;6.20;;;2.00;;
25341;SDS011;13298;48.792;9.154;2023-02-26T06:04:09;4.90;;;2.13;;
25341;SDS011;13298;48.792;9.154;2023-02-26T06:06:35;6.32;;;2.08;;
25341;SDS011;13298;48.792;9.154;2023-02-26T06:09:01;3.47;;;2.10;;
25341;SDS011;13298;48.792;9.154;2023-02-26T06:11:29;4.18;;;2.10;;
25341;SDS011;13298;48.792;9.154;2023-02-26T06:13:56;3.83;;;2.00;;
25341;SDS011;13298;48.792;9.154;2023-02-26T06:16:22;4.38;;;1.85;;
25341;SDS011;13298;48.792;9.154;2023-02-26T06:18:48;5.65;;;2.17;;
25341;SDS011;13298;48.792;9.154;2023-02-26T06:21:14;4.55;;;2.10;;
25341;SDS011;13298;48.792;9.154;2023-02-26T06:23:41;4.35;;;2.13;;
25341;SDS011;13298;48.792;9.154;2023-02-26T06:26:06;5.35;;;2.83;;
25341;SDS011;13298;48.792;9.154;2023-02-26T06:28:32;5.13;;;2.13;;
25341;SDS011;13298;48.792;9.154;2023-02-26T06:30:58;7.03;;;2.38;;
25341;SDS011;13298;48.792;9.154;2023-02-26T06:33:24;6.18;;;2.45;;
25341;SDS011;13298;48.792;9.154;2023-02-26T06:35:50;5.20;;;2.72;;
25341;SDS011;13298;48.792;9.154;2023-02-26T06:38:16;4.75;;;1.98;;
25341;SDS011;13298;48.792;9.154;2023-02-26T06:40:43;7.95;;;2.08;;
25341;SDS011;13298;48.792;9.154;2023-02-26T06:43:10;8.18;;;2.22;;
25341;SDS011;13298;48.792;9.154;2023-02-26T06:45:36;4.10;;;2.17;;
25341;SDS011;13298;48.792;9.154;2023-02-26T06:48:02;4.75;;;2.63;;
25341;SDS011;13298;48.792;9.154;2023-02-26T06:50:28;5.43;;;2.60;;
25341;SDS011;13298;48.792;9.154;2023-02-26T06:52:54;11.38;;;2.80;;
25341;SDS011;13298;48.792;9.154;2023-02-26T06:55:19;8.35;;;2.80;;
25341;SDS011;13298;48.792;9.154;2023-02-26T06:57:46;5.15;;;2.15;;
25341;SDS011;13298;48.792;9.154;2023-02-26T07:00:12;4.20;;;2.13;;
25341;SDS011;13298;48.792;9.154;2023-02-26T07:02:38;7.95;;;2.35;;
25341;SDS011;13298;48.792;9.154;2023-02-26T07:05:04;4.82;;;2.47;;
25341;SDS011;13298;48.792;9.154;2023-02-26T07:07:30;8.43;;;2.53;;
25341;SDS011;13298;48.792;9.154;2023-02-26T07:09:56;5.05;;;2.35;;
25341;SDS011;13298;48.792;9.154;2023-02-26T07:12:22;8.43;;;2.53;;
25341;SDS011;13298;48.792;9.154;2023-02-26T07:14:48;4.93;;;2.38;;
25341;SDS011;13298;48.792;9.154;2023-02-26T07:17:13;6.47;;;2.13;;
25341;SDS011;13298;48.792;9.154;2023-02-26T07:19:45;6.60;;;2.25;;
25341;SDS011;13298;48.792;9.154;2023-02-26T07:22:17;6.93;;;2.60;;
25341;SDS011;13298;48.792;9.154;2023-02-26T07:24:43;6.15;;;2.20;;
25341;SDS011;13298;48.792;9.154;2023-02-26T07:27:10;5.75;;;2.47;;
25341;SDS011;13298;48.792;9.154;2023-02-26T07:29:36;6.18;;;2.33;;
25341;SDS011;13298;48.792;9.154;2023-02-26T07:32:02;6.45;;;2.22;;
25341;SDS011;13298;48.792;9.154;2023-02-26T07:34:29;5.45;;;2.22;;
25341;SDS011;13298;48.792;9.154;2023-02-26T07:36:55;3.83;;;2.10;;
25341;SDS011;13298;48.792;9.154;2023-02-26T07:39:23;5.65;;;1.92;;
25341;SDS011;13298;48.792;9.154;2023-02-26T07:41:51;8.35;;;2.20;;
25341;SDS011;13298;48.792;9.154;2023-02-26T07:44:16;8.45;;;2.30;;
25341;SDS011;13298;48.792;9.154;2023-02-26T07:46:42;4.95;;;2.05;;
25341;SDS011;13298;48.792;9.154;2023-02-26T07:49:08;5.40;;;2.13;;
25341;SDS011;13298;48.792;9.154;2023-02-26T07:51:33;3.70;;;1.90;;
25341;SDS011;13298;48.792;9.154;2023-02-26T07:53:59;5.13;;;1.73;;
25341;SDS011;13298;48.792;9.154;2023-02-26T07:56:25;5.07;;;1.80;;
25341;SDS011;13298;48.792;9.154;2023-02-26T07:58:51;4.35;;;1.80;;
25341;SDS011;13298;48.792;9.154;2023-02-26T08:01:16;5.88;;;1.85;;
25341;SDS011;13298;48.792;9.154;2023-02-26T08:03:42;3.63;;;1.63;;
25341;SDS011;13298;48.792;9.154;2023-02-26T08:06:08;6.97;;;1.98;;
25341;SDS011;13298;48.792;9.154;2023-02-26T08:08:34;7.00;;;1.73;;
25341;SDS011;13298;48.792;9.154;2023-02-26T08:11:00;3.97;;;1.50;;
25341;SDS011;13298;48.792;9.154;2023-02-26T08:13:26;6.43;;;1.60;;
25341;SDS011;13298;48.792;9.154;2023-02-26T08:15:51;10.40;;;1.83;;
25341;SDS011;13298;48.792;9.154;2023-02-26T08:18:17;2.95;;;1.65;;
25341;SDS011;13298;48.792;9.154;2023-02-26T08:20:43;3.55;;;1.45;;
25341;SDS011;13298;48.792;9.154;2023-02-26T08:23:09;3.70;;;1.42;;
25341;SDS011;13298;48.792;9.154;2023-02-26T08:25:34;2.90;;;1.45;;
25341;SDS011;13298;48.792;9.154;2023-02-26T08:28:00;4.30;;;1.55;;
25341;SDS011;13298;48.792;9.154;2023-02-26T08:30:27;3.22;;;1.20;;
25341;SDS011;13298;48.792;9.154;2023-02-26T08:32:53;3.97;;;1.70;;
25341;SDS011;13298;48.792;9.154;2023-02-26T08:35:19;4.90;;;1.50;;
25341;SDS011;13298;48.792;9.154;2023-02-26T08:37:45;3.20;;;1.33;;
25341;SDS011;13298;48.792;9.154;2023-02-26T08:40:11;3.45;;;1.38;;
25341;SDS011;13298;48.792;9.154;2023-02-26T08:42:37;2.90;;;1.40;;
25341;SDS011;13298;48.792;9.154;2023-02-26T08:45:03;4.47;;;1.65;;
25341;SDS011;13298;48.792;9.154;2023-02-26T08:47:29;7.20;;;1.70;;
25341;SDS011;13298;48.792;9.154;2023-02-26T08:49:55;2.63;;;1.40;;
25341;SDS011;13298;48.792;9.154;2023-02-26T08:52:22;3.58;;;1.48;;
25341;SDS011;13298;48.792;9.154;2023-02-26T08:54:48;4.95;;;1.50;;
25341;SDS011;13298;48.792;9.154;2023-02-26T08:57:14;3.53;;;1.40;;
25341;SDS011;13298;48.792;9.154;2023-02-26T08:59:40;2.38;;;1.30;;
25341;SDS011;13298;48.792;9.154;2023-02-26T09:02:06;3.40;;;1.60;;
25341;SDS011;13298;48.792;9.154;2023-02-26T09:04:34;4.32;;;1.50;;
25341;SDS011;13298;48.792;9.154;2023-02-26T09:07:00;3.60;;;1.30;;
25341;SDS011;13298;48.792;9.154;2023-02-26T09:09:26;5.25;;;1.60;;
25341;SDS011;13298;48.792;9.154;2023-02-26T09:11:51;3.67;;;1.50;;
25341;SDS011;13298;48.792;9.154;2023-02-26T09:14:17;3.47;;;1.13;;
25341;SDS011;13298;48.792;9.154;2023-02-26T09:16:43;2.42;;;1.20;;
25341;SDS011;13298;48.792;9.154;2023-02-26T09:19:08;8.93;;;1.80;;
25341;SDS011;13298;48.792;9.154;2023-02-26T09:21:35;6.03;;;1.30;;
25341;SDS011;13298;48.792;9.154;2023-02-26T09:24:00;3.28;;;1.20;;
25341;SDS011;13298;48.792;9.154;2023-02-26T09:26:26;4.70;;;1.33;;
25341;SDS011;13298;48.792;9.154;2023-02-26T09:28:52;3.30;;;1.23;;
25341;SDS011;13298;48.792;9.154;2023-02-26T09:31:18;3.13;;;1.15;;
25341;SDS011;13298;48.792;9.154;2023-02-26T09:33:44;5.03;;;1.25;;
25341;SDS011;13298;48.792;9.154;2023-02-26T09:36:09;3.65;;;1.45;;
25341;SDS011;13298;48.792;9.154;2023-02-26T09:38:35;5.40;;;1.33;;
25341;SDS011;13298;48.792;9.154;2023-02-26T09:41:02;3.35;;;1.15;;
25341;SDS011;13298;48.792;9.154;2023-02-26T09:49:45;1.77;;;1.20;;
25341;SDS011;13298;48.792;9.154;2023-02-26T09:52:29;2.47;;;1.20;;
25341;SDS011;13298;48.792;9.154;2023-02-26T09:55:05;3.60;;;1.33;;
25341;SDS011;13298;48.792;9.154;2023-02-26T09:57:54;2.22;;;1.30;;
25341;SDS011;13298;48.792;9.154;2023-02-26T10:00:31;2.75;;;1.20;;
25341;SDS011;13298;48.792;9.154;2023-02-26T10:08:55;2.35;;;1.40;;
25341;SDS011;13298;48.792;9.154;2023-02-26T10:11:50;2.70;;;1.33;;
25341;SDS011;13298;48.792;9.154;2023-02-26T10:14:34;2.50;;;1.10;;
25341;SDS011;13298;48.792;9.154;2023-02-26T10:17:22;3.55;;;1.50;;
25341;SDS011;13298;48.792;9.154;2023-02-26T10:20:22;2.92;;;1.10;;
25341;SDS011;13298;48.792;9.154;2023-02-26T10:23:01;2.58;;;1.50;;
25341;SDS011;13298;48.792;9.154;2023-02-26T10:25:38;5.45;;;1.65;;
25341;SDS011;13298;48.792;9.154;2023-02-26T10:30:59;5.25;;;1.50;;
25341;SDS011;13298;48.792;9.154;2023-02-26T10:36:47;4.60;;;1.40;;
25341;SDS011;13298;48.792;9.154;2023-02-26T10:42:27;1.92;;;1.20;;
25341;SDS011;13298;48.792;9.154;2023-02-26T10:47:58;2.80;;;1.20;;
25341;SDS011;13298;48.792;9.154;2023-02-26T10:50:37;2.20;;;1.20;;
25341;SDS011;13298;48.792;9.154;2023-02-26T10:53:08;3.85;;;1.13;;
25341;SDS011;13298;48.792;9.154;2023-02-26T10:55:38;2.60;;;1.23;;
25341;SDS011;13298;48.792;9.154;2023-02-26T10:58:11;3.70;;;1.20;;
25341;SDS011;13298;48.792;9.154;2023-02-26T11:00:41;2.65;;;1.40;;
25341;SDS011;13298;48.792;9.154;2023-02-26T11:03:12;3.33;;;1.27;;
25341;SDS011;13298;48.792;9.154;2023-02-26T11:05:43;2.83;;;1.35;;
25341;SDS011;13298;48.792;9.154;2023-02-26T11:08:11;3.85;;;1.10;;
25341;SDS011;13298;48.792;9.154;2023-02-26T11:10:46;4.25;;;1.38;;
25341;SDS011;13298;48.792;9.154;2023-02-26T11:13:19;1.75;;;1.13;;
25341;SDS011;13298;48.792;9.154;2023-02-26T11:15:48;4.13;;;1.10;;
25341;SDS011;13298;48.792;9.154;2023-02-26T11:18:19;3.78;;;1.33;;
25341;SDS011;13298;48.792;9.154;2023-02-26T11:20:52;2.25;;;1.42;;
25341;SDS011;13298;48.792;9.154;2023-02-26T11:23:21;2.47;;;1.30;;
25341;SDS011;13298;48.792;9.154;2023-02-26T11:26:00;2.85;;;1.30;;
25341;SDS011;13298;48.792;9.154;2023-02-26T11:28:34;1.27;;;1.00;;
25341;SDS011;13298;48.792;9.154;2023-02-26T11:31:08;3.42;;;1.35;;
25341;SDS011;13298;48.792;9.154;2023-02-26T11:33:37;3.75;;;1.00;;
25341;SDS011;13298;48.792;9.154;2023-02-26T11:36:07;2.55;;;0.93;;
25341;SDS011;13298;48.792;9.154;2023-02-26T11:38:39;3.33;;;1.10;;
25341;SDS011;13298;48.792;9.154;2023-02-26T11:41:05;2.17;;;1.10;;
25341;SDS011;13298;48.792;9.154;2023-02-26T11:43:32;1.20;;;0.82;;
25341;SDS011;13298;48.792;9.154;2023-02-26T11:46:12;1.00;;;0.90;;
25341;SDS011;13298;48.792;9.154;2023-02-26T11:48:40;2.50;;;1.05;;
25341;SDS011;13298;48.792;9.154;2023-02-26T11:51:17;1.25;;;0.95;;
25341;SDS011;13298;48.792;9.154;2023-02-26T11:56:34;1.45;;;0.90;;
25341;SDS011;13298;48.792;9.154;2023-02-26T11:59:22;2.10;;;0.98;;
25341;SDS011;13298;48.792;9.154;2023-02-26T12:01:49;1.15;;;0.80;;
25341;SDS011;13298;48.792;9.154;2023-02-26T12:04:18;1.23;;;0.93;;
25341;SDS011;13298;48.792;9.154;2023-02-26T12:06:50;1.45;;;0.90;;
25341;SDS011;13298;48.792;9.154;2023-02-26T12:09:17;1.35;;;1.05;;
25341;SDS011;13298;48.792;9.154;2023-02-26T12:20:31;1.40;;;0.90;;
25341;SDS011;13298;48.792;9.154;2023-02-26T12:23:22;2.05;;;1.35;;
25341;SDS011;13298;48.792;9.154;2023-02-26T12:32:06;2.42;;;1.00;;
25341;SDS011;13298;48.792;9.154;2023-02-26T12:38:09;2.00;;;1.00;;
25341;SDS011;13298;48.792;9.154;2023-02-26T12:43:49;2.10;;;1.08;;
25341;SDS011;13298;48.792;9.154;2023-02-26T12:54:30;1.10;;;0.90;;
25341;SDS011;13298;48.792;9.154;2023-02-26T12:58:07;3.33;;;1.08;;
25341;SDS011;13298;48.792;9.154;2023-02-26T13:00:46;1.50;;;1.20;;
25341;SDS011;13298;48.792;9.154;2023-02-26T13:03:34;2.58;;;0.88;;
25341;SDS011;13298;48.792;9.154;2023-02-26T13:09:49;2.55;;;1.00;;
25341;SDS011;13298;48.792;9.154;2023-02-26T13:12:29;1.60;;;0.80;;
25341;SDS011;13298;48.792;9.154;2023-02-26T13:15:26;1.60;;;0.98;;
25341;SDS011;13298;48.792;9.154;2023-02-26T13:18:23;1.38;;;0.88;;
25341;SDS011;13298;48.792;9.154;2023-02-26T13:21:22;1.45;;;1.10;;
25341;SDS011;13298;48.792;9.154;2023-02-26T13:24:01;1.70;;;1.00;;
25341;SDS011;13298;48.792;9.154;2023-02-26T13:26:50;1.83;;;0.90;;
25341;SDS011;13298;48.792;9.154;2023-02-26T13:32:22;1.35;;;0.90;;
25341;SDS011;13298;48.792;9.154;2023-02-26T13:34:55;3.25;;;0.80;;
25341;SDS011;13298;48.792;9.154;2023-02-26T13:45:59;1.17;;;0.80;;
25341;SDS011;13298;48.792;9.154;2023-02-26T13:49:03;0.77;;;0.77;;
25341;SDS011;13298;48.792;9.154;2023-02-26T14:01:50;1.25;;;0.73;;
25341;SDS011;13298;48.792;9.154;2023-02-26T14:06:48;0.88;;;0.70;;
25341;SDS011;13298;48.792;9.154;2023-02-26T14:25:40;0.88;;;0.68;;
25341;SDS011;13298;48.792;9.154;2023-02-26T14:28:29;1.10;;;0.80;;
25341;SDS011;13298;48.792;9.154;2023-02-26T14:33:28;1.38;;;0.70;;
25341;SDS011;13298;48.792;9.154;2023-02-26T14:35:56;1.70;;;0.75;;
25341;SDS011;13298;48.792;9.154;2023-02-26T14:38:23;1.02;;;0.52;;
25341;SDS011;13298;48.792;9.154;2023-02-26T14:41:04;1.38;;;0.80;;
25341;SDS011;13298;48.792;9.154;2023-02-26T14:44:21;0.77;;;0.70;;
25341;SDS011;13298;48.792;9.154;2023-02-26T14:46:25;1.85;;;0.90;;
25341;SDS011;13298;48.792;9.154;2023-02-26T14:48:51;1.23;;;0.80;;
25341;SDS011;13298;48.792;9.154;2023-02-26T14:51:36;1.90;;;0.82;;
25341;SDS011;13298;48.792;9.154;2023-02-26T14:54:42;1.85;;;0.57;;
25341;SDS011;13298;48.792;9.154;2023-02-26T15:00:35;0.68;;;0.68;;
25341;SDS011;13298;48.792;9.154;2023-02-26T15:06:15;1.75;;;0.50;;
25341;SDS011;13298;48.792;9.154;2023-02-26T15:09:22;1.30;;;0.60;;
25341;SDS011;13298;48.792;9.154;2023-02-26T15:15:02;1.80;;;0.63;;
25341;SDS011;13298;48.792;9.154;2023-02-26T15:23:43;1.02;;;0.70;;
25341;SDS011;13298;48.792;9.154;2023-02-26T15:28:47;0.95;;;0.60;;
25341;SDS011;13298;48.792;9.154;2023-02-26T15:31:14;3.72;;;0.77;;
25341;SDS011;13298;48.792;9.154;2023-02-26T15:33:46;0.93;;;0.60;;
25341;SDS011;13298;48.792;9.154;2023-02-26T15:36:14;1.20;;;0.70;;
25341;SDS011;13298;48.792;9.154;2023-02-26T15:38:46;1.55;;;0.88;;
25341;SDS011;13298;48.792;9.154;2023-02-26T15:41:18;0.57;;;0.57;;
25341;SDS011;13298;48.792;9.154;2023-02-26T15:43:48;1.30;;;0.70;;
25341;SDS011;13298;48.792;9.154;2023-02-26T15:46:19;1.77;;;1.13;;
25341;SDS011;13298;48.792;9.154;2023-02-26T15:48:53;1.02;;;0.77;;
25341;SDS011;13298;48.792;9.154;2023-02-26T15:51:25;0.80;;;0.70;;
25341;SDS011;13298;48.792;9.154;2023-02-26T15:53:52;1.58;;;1.00;;
25341;SDS011;13298;48.792;9.154;2023-02-26T15:58:49;1.50;;;0.80;;
25341;SDS011;13298;48.792;9.154;2023-02-26T16:01:20;0.65;;;0.65;;
25341;SDS011;13298;48.792;9.154;2023-02-26T16:03:49;1.25;;;0.75;;
25341;SDS011;13298;48.792;9.154;2023-02-26T16:06:22;0.50;;;0.47;;
25341;SDS011;13298;48.792;9.154;2023-02-26T16:08:55;2.20;;;0.60;;
25341;SDS011;13298;48.792;9.154;2023-02-26T16:11:22;2.70;;;0.65;;
25341;SDS011;13298;48.792;9.154;2023-02-26T16:13:49;2.10;;;0.60;;
25341;SDS011;13298;48.792;9.154;2023-02-26T16:16:18;1.20;;;0.60;;
25341;SDS011;13298;48.792;9.154;2023-02-26T16:18:50;1.17;;;0.40;;
25341;SDS011;13298;48.792;9.154;2023-02-26T16:21:22;0.70;;;0.60;;
25341;SDS011;13298;48.792;9.154;2023-02-26T16:23:58;1.60;;;0.70;;
25341;SDS011;13298;48.792;9.154;2023-02-26T16:26:34;2.72;;;0.88;;
25341;SDS011;13298;48.792;9.154;2023-02-26T16:29:09;1.73;;;0.57;;
25341;SDS011;13298;48.792;9.154;2023-02-26T16:31:40;2.42;;;0.90;;
25341;SDS011;13298;48.792;9.154;2023-02-26T16:36:58;1.02;;;0.52;;
25341;SDS011;13298;48.792;9.154;2023-02-26T16:39:56;0.68;;;0.60;;
25341;SDS011;13298;48.792;9.154;2023-02-26T16:45:21;1.58;;;0.60;;
25341;SDS011;13298;48.792;9.154;2023-02-26T16:47:50;1.60;;;0.70;;
25341;SDS011;13298;48.792;9.154;2023-02-26T16:50:23;1.15;;;0.93;;
25341;SDS011;13298;48.792;9.154;2023-02-26T16:55:37;0.90;;;0.57;;
25341;SDS011;13298;48.792;9.154;2023-02-26T16:58:04;1.33;;;0.55;;
25341;SDS011;13298;48.792;9.154;2023-02-26T17:00:33;0.93;;;0.50;;
25341;SDS011;13298;48.792;9.154;2023-02-26T17:03:05;1.10;;;0.50;;
25341;SDS011;13298;48.792;9.154;2023-02-26T17:05:52;1.33;;;0.77;;
25341;SDS011;13298;48.792;9.154;2023-02-26T17:08:31;4.03;;;0.60;;
25341;SDS011;13298;48.792;9.154;2023-02-26T17:11:26;0.45;;;0.45;;
25341;SDS011;13298;48.792;9.154;2023-02-26T17:16:46;1.55;;;0.80;;
25341;SDS011;13298;48.792;9.154;2023-02-26T17:19:13;1.52;;;0.70;;
25341;SDS011;13298;48.792;9.154;2023-02-26T17:21:43;1.00;;;0.68;;
25341;SDS011;13298;48.792;9.154;2023-02-26T17:24:14;2.30;;;0.70;;
25341;SDS011;13298;48.792;9.154;2023-02-26T17:26:44;1.77;;;0.75;;
25341;SDS011;13298;48.792;9.154;2023-02-26T17:29:16;2.83;;;0.60;;
25341;SDS011;13298;48.792;9.154;2023-02-26T17:31:48;1.55;;;0.60;;
25341;SDS011;13298;48.792;9.154;2023-02-26T17:34:14;1.60;;;0.50;;
25341;SDS011;13298;48.792;9.154;2023-02-26T17:36:42;1.10;;;0.60;;
25341;SDS011;13298;48.792;9.154;2023-02-26T17:39:09;1.05;;;0.60;;
25341;SDS011;13298;48.792;9.154;2023-02-26T17:41:37;1.65;;;0.70;;
25341;SDS011;13298;48.792;9.154;2023-02-26T17:44:05;2.40;;;0.80;;
25341;SDS011;13298;48.792;9.154;2023-02-26T17:46:30;1.45;;;0.68;;
25341;SDS011;13298;48.792;9.154;2023-02-26T17:48:56;1.13;;;0.63;;
25341;SDS011;13298;48.792;9.154;2023-02-26T17:51:22;0.90;;;0.65;;
25341;SDS011;13298;48.792;9.154;2023-02-26T17:53:47;3.22;;;0.80;;
25341;SDS011;13298;48.792;9.154;2023-02-26T17:58:52;1.13;;;0.60;;
25341;SDS011;13298;48.792;9.154;2023-02-26T18:01:19;1.92;;;0.80;;
25341;SDS011;13298;48.792;9.154;2023-02-26T18:03:47;1.58;;;0.80;;
25341;SDS011;13298;48.792;9.154;2023-02-26T18:06:14;1.30;;;0.63;;
25341;SDS011;13298;48.792;9.154;2023-02-26T18:08:40;1.30;;;0.75;;
25341;SDS011;13298;48.792;9.154;2023-02-26T18:11:07;0.75;;;0.50;;
25341;SDS011;13298;48.792;9.154;2023-02-26T18:13:36;1.65;;;0.63;;
25341;SDS011;13298;48.792;9.154;2023-02-26T18:16:05;2.47;;;0.63;;
25341;SDS011;13298;48.792;9.154;2023-02-26T18:18:37;1.45;;;0.80;;
25341;SDS011;13298;48.792;9.154;2023-02-26T18:21:03;1.08;;;0.68;;
25341;SDS011;13298;48.792;9.154;2023-02-26T18:23:29;1.45;;;0.70;;
25341;SDS011;13298;48.792;9.154;2023-02-26T18:25:55;1.55;;;0.80;;
25341;SDS011;13298;48.792;9.154;2023-02-26T18:28:25;1.52;;;0.75;;
25341;SDS011;13298;48.792;9.154;2023-02-26T18:30:52;3.42;;;0.80;;